sensor_id;sensor_type;location;lat;lon;timestamp;temperature;humidity
16140;DHT22;8175;49.326;12.690;2022-08-23T00:02:06;13.20;99.90
16140;DHT22;8175;49.326;12.690;2022-08-23T00:04:37;13.20;99.90
16140;DHT22;8175;49.326;12.690;2022-08-23T00:07:07;13.20;99.90
16140;DHT22;8175;49.326;12.690;2022-08-23T00:09:33;13.10;99.90
16140;DHT22;8175;49.326;12.690;2022-08-23T00:12:16;13.10;99.90
16140;DHT22;8175;49.326;12.690;2022-08-23T00:14:45;13.10;99.90
16140;DHT22;8175;49.326;12.690;2022-08-23T00:17:12;13.00;99.90
16140;DHT22;8175;49.326;12.690;2022-08-23T00:19:39;12.80;99.90
16140;DHT22;8175;49.326;12.690;2022-08-23T00:22:06;12.80;99.90
16140;DHT22;8175;49.326;12.690;2022-08-23T00:24:32;12.70;99.90
16140;DHT22;8175;49.326;12.690;2022-08-23T00:29:45;12.50;99.90
16140;DHT22;8175;49.326;12.690;2022-08-23T00:32:15;12.50;99.90
16140;DHT22;8175;49.326;12.690;2022-08-23T00:34:42;12.40;99.90
16140;DHT22;8175;49.326;12.690;2022-08-23T00:37:10;12.40;99.90
16140;DHT22;8175;49.326;12.690;2022-08-23T00:39:37;12.30;99.90
16140;DHT22;8175;49.326;12.690;2022-08-23T00:42:32;12.20;99.90
16140;DHT22;8175;49.326;12.690;2022-08-23T00:45:12;12.10;99.90
16140;DHT22;8175;49.326;12.690;2022-08-23T00:47:59;12.00;99.90
16140;DHT22;8175;49.326;12.690;2022-08-23T00:50:36;11.90;99.90
16140;DHT22;8175;49.326;12.690;2022-08-23T00:53:15;11.80;99.90
16140;DHT22;8175;49.326;12.690;2022-08-23T00:55:44;11.70;99.90
16140;DHT22;8175;49.326;12.690;2022-08-23T00:58:12;11.60;99.90
16140;DHT22;8175;49.326;12.690;2022-08-23T01:00:38;11.60;99.90
16140;DHT22;8175;49.326;12.690;2022-08-23T01:03:07;11.50;99.90
16140;DHT22;8175;49.326;12.690;2022-08-23T01:05:49;11.50;99.90
16140;DHT22;8175;49.326;12.690;2022-08-23T01:08:18;11.50;99.90
16140;DHT22;8175;49.326;12.690;2022-08-23T01:10:49;11.40;99.90
16140;DHT22;8175;49.326;12.690;2022-08-23T01:13:24;11.30;99.90
16140;DHT22;8175;49.326;12.690;2022-08-23T01:15:56;11.30;99.90
16140;DHT22;8175;49.326;12.690;2022-08-23T01:18:26;11.20;99.90
16140;DHT22;8175;49.326;12.690;2022-08-23T01:23:46;11.20;99.90
16140;DHT22;8175;49.326;12.690;2022-08-23T01:26:13;11.20;99.90
16140;DHT22;8175;49.326;12.690;2022-08-23T01:28:39;11.10;99.90
16140;DHT22;8175;49.326;12.690;2022-08-23T01:31:06;11.00;99.90
16140;DHT22;8175;49.326;12.690;2022-08-23T01:33:32;10.90;99.90
16140;DHT22;8175;49.326;12.690;2022-08-23T01:35:58;10.90;99.90
16140;DHT22;8175;49.326;12.690;2022-08-23T01:38:24;10.80;99.90
16140;DHT22;8175;49.326;12.690;2022-08-23T01:40:51;10.80;99.90
16140;DHT22;8175;49.326;12.690;2022-08-23T01:43:18;10.80;99.90
16140;DHT22;8175;49.326;12.690;2022-08-23T01:45:45;10.70;99.90
16140;DHT22;8175;49.326;12.690;2022-08-23T01:48:11;10.70;99.90
16140;DHT22;8175;49.326;12.690;2022-08-23T01:50:37;10.70;99.90
16140;DHT22;8175;49.326;12.690;2022-08-23T01:53:04;10.70;99.90
16140;DHT22;8175;49.326;12.690;2022-08-23T01:55:30;10.70;99.90
16140;DHT22;8175;49.326;12.690;2022-08-23T01:57:57;10.60;99.90
16140;DHT22;8175;49.326;12.690;2022-08-23T02:00:27;10.50;99.90
16140;DHT22;8175;49.326;12.690;2022-08-23T02:02:55;10.50;99.90
16140;DHT22;8175;49.326;12.690;2022-08-23T02:05:21;10.50;99.90
16140;DHT22;8175;49.326;12.690;2022-08-23T02:07:47;10.50;99.90
16140;DHT22;8175;49.326;12.690;2022-08-23T02:10:13;10.50;99.90
16140;DHT22;8175;49.326;12.690;2022-08-23T02:12:39;10.50;99.90
16140;DHT22;8175;49.326;12.690;2022-08-23T02:15:05;10.50;99.90
16140;DHT22;8175;49.326;12.690;2022-08-23T02:17:31;10.70;99.90
16140;DHT22;8175;49.326;12.690;2022-08-23T02:19:56;10.80;99.90
16140;DHT22;8175;49.326;12.690;2022-08-23T02:22:22;10.70;99.90
16140;DHT22;8175;49.326;12.690;2022-08-23T02:24:48;10.70;99.90
16140;DHT22;8175;49.326;12.690;2022-08-23T02:27:15;10.70;99.90
16140;DHT22;8175;49.326;12.690;2022-08-23T02:29:42;10.60;99.90
16140;DHT22;8175;49.326;12.690;2022-08-23T02:32:10;10.50;99.90
16140;DHT22;8175;49.326;12.690;2022-08-23T02:34:36;10.50;99.90
16140;DHT22;8175;49.326;12.690;2022-08-23T02:37:02;10.40;99.90
16140;DHT22;8175;49.326;12.690;2022-08-23T02:39:30;10.40;99.90
16140;DHT22;8175;49.326;12.690;2022-08-23T02:41:55;10.30;99.90
16140;DHT22;8175;49.326;12.690;2022-08-23T02:44:21;10.20;99.90
16140;DHT22;8175;49.326;12.690;2022-08-23T02:46:48;10.20;99.90
16140;DHT22;8175;49.326;12.690;2022-08-23T02:49:14;10.20;99.90
16140;DHT22;8175;49.326;12.690;2022-08-23T02:51:40;10.20;99.90
16140;DHT22;8175;49.326;12.690;2022-08-23T02:54:06;10.30;99.90
16140;DHT22;8175;49.326;12.690;2022-08-23T02:56:32;10.30;99.90
16140;DHT22;8175;49.326;12.690;2022-08-23T02:58:58;10.30;99.90
16140;DHT22;8175;49.326;12.690;2022-08-23T03:01:33;10.30;99.90
16140;DHT22;8175;49.326;12.690;2022-08-23T03:03:59;10.30;99.90
16140;DHT22;8175;49.326;12.690;2022-08-23T03:06:26;10.30;99.90
16140;DHT22;8175;49.326;12.690;2022-08-23T03:08:53;10.30;99.90
16140;DHT22;8175;49.326;12.690;2022-08-23T03:11:20;10.30;99.90
16140;DHT22;8175;49.326;12.690;2022-08-23T03:13:47;10.20;99.90
16140;DHT22;8175;49.326;12.690;2022-08-23T03:16:13;10.20;99.90
16140;DHT22;8175;49.326;12.690;2022-08-23T03:18:39;10.20;99.90
16140;DHT22;8175;49.326;12.690;2022-08-23T03:21:06;10.10;99.90
16140;DHT22;8175;49.326;12.690;2022-08-23T03:23:33;10.10;99.90
16140;DHT22;8175;49.326;12.690;2022-08-23T03:26:01;10.10;99.90
16140;DHT22;8175;49.326;12.690;2022-08-23T03:28:27;10.10;99.90
16140;DHT22;8175;49.326;12.690;2022-08-23T03:30:54;10.10;99.90
16140;DHT22;8175;49.326;12.690;2022-08-23T03:33:20;10.20;99.90
16140;DHT22;8175;49.326;12.690;2022-08-23T03:35:46;10.10;99.90
16140;DHT22;8175;49.326;12.690;2022-08-23T03:38:12;10.00;99.90
16140;DHT22;8175;49.326;12.690;2022-08-23T03:40:39;10.10;99.90
16140;DHT22;8175;49.326;12.690;2022-08-23T03:43:04;10.10;99.90
16140;DHT22;8175;49.326;12.690;2022-08-23T03:45:30;10.10;99.90
16140;DHT22;8175;49.326;12.690;2022-08-23T03:47:56;10.20;99.90
16140;DHT22;8175;49.326;12.690;2022-08-23T03:50:23;10.10;99.90
16140;DHT22;8175;49.326;12.690;2022-08-23T03:52:49;10.10;99.90
16140;DHT22;8175;49.326;12.690;2022-08-23T03:55:15;10.00;99.90
16140;DHT22;8175;49.326;12.690;2022-08-23T03:57:41;10.10;99.90
16140;DHT22;8175;49.326;12.690;2022-08-23T04:00:09;10.20;99.90
16140;DHT22;8175;49.326;12.690;2022-08-23T04:02:35;10.20;99.90
16140;DHT22;8175;49.326;12.690;2022-08-23T04:05:02;10.10;99.90
16140;DHT22;8175;49.326;12.690;2022-08-23T04:07:28;10.00;99.90
16140;DHT22;8175;49.326;12.690;2022-08-23T04:09:54;10.00;99.90
16140;DHT22;8175;49.326;12.690;2022-08-23T04:12:20;9.90;99.90
16140;DHT22;8175;49.326;12.690;2022-08-23T04:14:47;9.90;99.90
16140;DHT22;8175;49.326;12.690;2022-08-23T04:17:13;9.80;99.90
16140;DHT22;8175;49.326;12.690;2022-08-23T04:19:39;9.80;99.90
16140;DHT22;8175;49.326;12.690;2022-08-23T04:22:13;9.80;99.90
16140;DHT22;8175;49.326;12.690;2022-08-23T04:24:40;9.80;99.90
16140;DHT22;8175;49.326;12.690;2022-08-23T04:27:06;9.80;99.90
16140;DHT22;8175;49.326;12.690;2022-08-23T04:29:32;9.80;99.90
16140;DHT22;8175;49.326;12.690;2022-08-23T04:31:57;9.80;99.90
16140;DHT22;8175;49.326;12.690;2022-08-23T04:34:24;9.80;99.90
16140;DHT22;8175;49.326;12.690;2022-08-23T04:36:49;9.80;99.90
16140;DHT22;8175;49.326;12.690;2022-08-23T04:39:15;9.80;99.90
16140;DHT22;8175;49.326;12.690;2022-08-23T04:41:41;9.80;99.90
16140;DHT22;8175;49.326;12.690;2022-08-23T04:44:25;9.80;99.90
16140;DHT22;8175;49.326;12.690;2022-08-23T04:46:51;9.80;99.90
16140;DHT22;8175;49.326;12.690;2022-08-23T04:49:17;9.80;99.90
16140;DHT22;8175;49.326;12.690;2022-08-23T04:51:43;9.80;99.90
16140;DHT22;8175;49.326;12.690;2022-08-23T04:54:09;9.80;99.90
16140;DHT22;8175;49.326;12.690;2022-08-23T04:56:36;9.90;99.90
16140;DHT22;8175;49.326;12.690;2022-08-23T04:59:02;9.90;99.90
16140;DHT22;8175;49.326;12.690;2022-08-23T05:01:28;9.90;99.90
16140;DHT22;8175;49.326;12.690;2022-08-23T05:03:54;10.00;99.90
16140;DHT22;8175;49.326;12.690;2022-08-23T05:06:20;10.00;99.90
16140;DHT22;8175;49.326;12.690;2022-08-23T05:08:46;10.10;99.90
16140;DHT22;8175;49.326;12.690;2022-08-23T05:11:12;10.10;99.90
16140;DHT22;8175;49.326;12.690;2022-08-23T05:13:38;10.20;99.90
16140;DHT22;8175;49.326;12.690;2022-08-23T05:16:04;10.30;99.90
16140;DHT22;8175;49.326;12.690;2022-08-23T05:18:31;10.40;99.90
16140;DHT22;8175;49.326;12.690;2022-08-23T05:20:58;10.40;99.90
16140;DHT22;8175;49.326;12.690;2022-08-23T05:23:24;10.40;99.90
16140;DHT22;8175;49.326;12.690;2022-08-23T05:25:52;10.40;99.90
16140;DHT22;8175;49.326;12.690;2022-08-23T05:28:23;10.40;99.90
16140;DHT22;8175;49.326;12.690;2022-08-23T05:31:06;10.50;99.90
16140;DHT22;8175;49.326;12.690;2022-08-23T05:33:33;10.40;99.90
16140;DHT22;8175;49.326;12.690;2022-08-23T05:36:00;10.40;99.90
16140;DHT22;8175;49.326;12.690;2022-08-23T05:38:29;10.40;99.90
16140;DHT22;8175;49.326;12.690;2022-08-23T05:40:56;10.40;99.90
16140;DHT22;8175;49.326;12.690;2022-08-23T05:43:24;10.40;99.90
16140;DHT22;8175;49.326;12.690;2022-08-23T05:46:16;10.50;99.90
16140;DHT22;8175;49.326;12.690;2022-08-23T05:48:44;10.50;99.90
16140;DHT22;8175;49.326;12.690;2022-08-23T05:51:24;10.60;99.90
16140;DHT22;8175;49.326;12.690;2022-08-23T05:53:52;10.70;99.90
16140;DHT22;8175;49.326;12.690;2022-08-23T05:56:19;10.80;99.90
16140;DHT22;8175;49.326;12.690;2022-08-23T05:58:47;10.90;99.90
16140;DHT22;8175;49.326;12.690;2022-08-23T06:01:13;11.00;99.90
16140;DHT22;8175;49.326;12.690;2022-08-23T06:03:40;11.20;99.90
16140;DHT22;8175;49.326;12.690;2022-08-23T06:06:06;11.60;99.90
16140;DHT22;8175;49.326;12.690;2022-08-23T06:08:33;12.10;99.90
16140;DHT22;8175;49.326;12.690;2022-08-23T06:11:01;12.20;99.90
16140;DHT22;8175;49.326;12.690;2022-08-23T06:13:27;12.20;99.90
16140;DHT22;8175;49.326;12.690;2022-08-23T06:15:54;12.20;99.90
16140;DHT22;8175;49.326;12.690;2022-08-23T06:18:20;12.20;99.90
16140;DHT22;8175;49.326;12.690;2022-08-23T06:20:45;12.30;99.90
16140;DHT22;8175;49.326;12.690;2022-08-23T06:23:11;12.40;99.90
16140;DHT22;8175;49.326;12.690;2022-08-23T06:25:38;12.40;99.90
16140;DHT22;8175;49.326;12.690;2022-08-23T06:28:04;12.60;99.90
16140;DHT22;8175;49.326;12.690;2022-08-23T06:30:29;12.70;99.90
16140;DHT22;8175;49.326;12.690;2022-08-23T06:32:55;12.70;99.90
16140;DHT22;8175;49.326;12.690;2022-08-23T06:35:21;12.80;99.90
16140;DHT22;8175;49.326;12.690;2022-08-23T06:37:46;12.90;99.90
16140;DHT22;8175;49.326;12.690;2022-08-23T06:40:12;13.00;99.90
16140;DHT22;8175;49.326;12.690;2022-08-23T06:42:37;13.20;99.90
16140;DHT22;8175;49.326;12.690;2022-08-23T06:45:04;13.40;99.90
16140;DHT22;8175;49.326;12.690;2022-08-23T06:47:30;13.50;99.90
16140;DHT22;8175;49.326;12.690;2022-08-23T06:49:56;13.70;99.90
16140;DHT22;8175;49.326;12.690;2022-08-23T06:52:22;13.90;99.90
16140;DHT22;8175;49.326;12.690;2022-08-23T06:54:48;14.00;99.90
16140;DHT22;8175;49.326;12.690;2022-08-23T06:57:14;14.10;99.90
16140;DHT22;8175;49.326;12.690;2022-08-23T06:59:39;14.30;99.90
16140;DHT22;8175;49.326;12.690;2022-08-23T07:02:07;14.50;99.90
16140;DHT22;8175;49.326;12.690;2022-08-23T07:04:38;14.60;99.90
16140;DHT22;8175;49.326;12.690;2022-08-23T07:07:05;14.80;99.90
16140;DHT22;8175;49.326;12.690;2022-08-23T07:09:31;14.90;99.90
16140;DHT22;8175;49.326;12.690;2022-08-23T07:11:58;15.10;99.90
16140;DHT22;8175;49.326;12.690;2022-08-23T07:14:25;15.30;99.90
16140;DHT22;8175;49.326;12.690;2022-08-23T07:16:53;15.50;99.90
16140;DHT22;8175;49.326;12.690;2022-08-23T07:19:22;15.70;99.90
16140;DHT22;8175;49.326;12.690;2022-08-23T07:21:48;15.80;99.90
16140;DHT22;8175;49.326;12.690;2022-08-23T07:24:14;15.80;99.90
16140;DHT22;8175;49.326;12.690;2022-08-23T07:26:42;16.00;99.90
16140;DHT22;8175;49.326;12.690;2022-08-23T07:29:09;16.20;99.90
16140;DHT22;8175;49.326;12.690;2022-08-23T07:31:40;16.50;99.90
16140;DHT22;8175;49.326;12.690;2022-08-23T07:34:06;16.80;99.90
16140;DHT22;8175;49.326;12.690;2022-08-23T07:36:34;17.30;99.90
16140;DHT22;8175;49.326;12.690;2022-08-23T07:39:00;17.90;99.90
16140;DHT22;8175;49.326;12.690;2022-08-23T07:41:28;18.80;99.90
16140;DHT22;8175;49.326;12.690;2022-08-23T07:43:59;19.10;99.90
16140;DHT22;8175;49.326;12.690;2022-08-23T07:46:27;19.80;99.90
16140;DHT22;8175;49.326;12.690;2022-08-23T07:48:55;21.30;99.90
16140;DHT22;8175;49.326;12.690;2022-08-23T07:51:23;22.70;99.90
16140;DHT22;8175;49.326;12.690;2022-08-23T07:53:49;23.90;99.90
16140;DHT22;8175;49.326;12.690;2022-08-23T07:56:17;24.70;97.70
16140;DHT22;8175;49.326;12.690;2022-08-23T07:58:44;25.60;93.80
16140;DHT22;8175;49.326;12.690;2022-08-23T08:01:17;25.90;92.10
16140;DHT22;8175;49.326;12.690;2022-08-23T08:03:45;27.10;90.10
16140;DHT22;8175;49.326;12.690;2022-08-23T08:06:17;27.80;83.70
16140;DHT22;8175;49.326;12.690;2022-08-23T08:08:44;28.30;79.10
16140;DHT22;8175;49.326;12.690;2022-08-23T08:11:10;28.80;74.60
16140;DHT22;8175;49.326;12.690;2022-08-23T08:13:38;28.80;72.30
16140;DHT22;8175;49.326;12.690;2022-08-23T08:16:04;28.60;69.70
16140;DHT22;8175;49.326;12.690;2022-08-23T08:18:30;28.30;70.00
16140;DHT22;8175;49.326;12.690;2022-08-23T08:20:56;28.70;69.70
16140;DHT22;8175;49.326;12.690;2022-08-23T08:23:22;28.10;67.40
16140;DHT22;8175;49.326;12.690;2022-08-23T08:25:48;28.40;70.90
16140;DHT22;8175;49.326;12.690;2022-08-23T08:28:14;28.90;67.00
16140;DHT22;8175;49.326;12.690;2022-08-23T08:30:39;29.10;66.30
16140;DHT22;8175;49.326;12.690;2022-08-23T08:33:05;29.30;66.10
16140;DHT22;8175;49.326;12.690;2022-08-23T08:35:30;28.90;66.10
16140;DHT22;8175;49.326;12.690;2022-08-23T08:37:56;29.00;65.30
16140;DHT22;8175;49.326;12.690;2022-08-23T08:40:32;28.70;64.60
16140;DHT22;8175;49.326;12.690;2022-08-23T08:48:14;29.20;61.00
16140;DHT22;8175;49.326;12.690;2022-08-23T08:50:52;29.30;63.20
16140;DHT22;8175;49.326;12.690;2022-08-23T08:53:58;29.00;60.30
16140;DHT22;8175;49.326;12.690;2022-08-23T08:56:27;29.50;62.50
16140;DHT22;8175;49.326;12.690;2022-08-23T08:58:59;29.90;62.60
16140;DHT22;8175;49.326;12.690;2022-08-23T09:01:26;29.10;62.40
16140;DHT22;8175;49.326;12.690;2022-08-23T09:03:54;28.50;64.10
16140;DHT22;8175;49.326;12.690;2022-08-23T09:06:33;28.40;63.70
16140;DHT22;8175;49.326;12.690;2022-08-23T09:17:29;29.10;62.70
16140;DHT22;8175;49.326;12.690;2022-08-23T09:19:58;29.40;63.30
16140;DHT22;8175;49.326;12.690;2022-08-23T09:22:35;29.80;60.70
16140;DHT22;8175;49.326;12.690;2022-08-23T09:25:02;29.80;61.20
16140;DHT22;8175;49.326;12.690;2022-08-23T09:27:29;29.40;64.10
16140;DHT22;8175;49.326;12.690;2022-08-23T09:29:57;29.90;62.10
16140;DHT22;8175;49.326;12.690;2022-08-23T09:32:36;29.50;63.40
16140;DHT22;8175;49.326;12.690;2022-08-23T09:35:19;29.00;65.00
16140;DHT22;8175;49.326;12.690;2022-08-23T09:37:58;28.40;62.50
16140;DHT22;8175;49.326;12.690;2022-08-23T09:43:13;28.50;64.00
16140;DHT22;8175;49.326;12.690;2022-08-23T09:53:32;29.40;66.00
16140;DHT22;8175;49.326;12.690;2022-08-23T09:56:11;29.40;63.30
16140;DHT22;8175;49.326;12.690;2022-08-23T09:58:41;28.30;66.00
16140;DHT22;8175;49.326;12.690;2022-08-23T10:01:17;29.40;64.40
16140;DHT22;8175;49.326;12.690;2022-08-23T10:03:44;28.40;66.10
16140;DHT22;8175;49.326;12.690;2022-08-23T10:06:12;27.80;70.00
16140;DHT22;8175;49.326;12.690;2022-08-23T10:08:52;27.50;67.00
16140;DHT22;8175;49.326;12.690;2022-08-23T10:11:28;28.80;69.00
16140;DHT22;8175;49.326;12.690;2022-08-23T10:13:55;29.00;67.10
16140;DHT22;8175;49.326;12.690;2022-08-23T10:19:03;25.80;74.10
16140;DHT22;8175;49.326;12.690;2022-08-23T10:30:26;28.60;69.60
16140;DHT22;8175;49.326;12.690;2022-08-23T10:35:48;29.60;64.00
16140;DHT22;8175;49.326;12.690;2022-08-23T10:46:47;26.60;69.50
16140;DHT22;8175;49.326;12.690;2022-08-23T10:49:16;26.00;76.00
16140;DHT22;8175;49.326;12.690;2022-08-23T10:51:45;26.00;74.40
16140;DHT22;8175;49.326;12.690;2022-08-23T10:54:17;26.50;75.30
16140;DHT22;8175;49.326;12.690;2022-08-23T10:56:50;27.10;70.40
16140;DHT22;8175;49.326;12.690;2022-08-23T10:59:22;26.90;70.40
16140;DHT22;8175;49.326;12.690;2022-08-23T11:07:30;30.60;61.00
16140;DHT22;8175;49.326;12.690;2022-08-23T11:12:31;29.90;64.60
16140;DHT22;8175;49.326;12.690;2022-08-23T11:17:52;29.90;62.80
16140;DHT22;8175;49.326;12.690;2022-08-23T11:23:16;29.40;63.00
16140;DHT22;8175;49.326;12.690;2022-08-23T11:25:44;27.40;68.10
16140;DHT22;8175;49.326;12.690;2022-08-23T11:28:40;26.60;68.00
16140;DHT22;8175;49.326;12.690;2022-08-23T11:31:29;26.40;72.60
16140;DHT22;8175;49.326;12.690;2022-08-23T11:34:24;26.20;73.10
16140;DHT22;8175;49.326;12.690;2022-08-23T11:42:43;26.90;71.90
16140;DHT22;8175;49.326;12.690;2022-08-23T11:45:26;26.90;71.10
16140;DHT22;8175;49.326;12.690;2022-08-23T11:50:51;27.40;70.20
16140;DHT22;8175;49.326;12.690;2022-08-23T11:59:02;26.60;76.60
16140;DHT22;8175;49.326;12.690;2022-08-23T12:01:34;26.50;78.10
16140;DHT22;8175;49.326;12.690;2022-08-23T12:04:05;25.80;80.50
16140;DHT22;8175;49.326;12.690;2022-08-23T12:06:43;25.30;84.90
16140;DHT22;8175;49.326;12.690;2022-08-23T12:19:50;29.10;76.80
16140;DHT22;8175;49.326;12.690;2022-08-23T12:22:21;28.80;75.50
16140;DHT22;8175;49.326;12.690;2022-08-23T12:24:57;28.60;77.90
16140;DHT22;8175;49.326;12.690;2022-08-23T12:40:29;24.40;93.80
16140;DHT22;8175;49.326;12.690;2022-08-23T12:43:23;25.60;93.50
16140;DHT22;8175;49.326;12.690;2022-08-23T12:45:57;27.60;90.10
16140;DHT22;8175;49.326;12.690;2022-08-23T12:48:28;29.60;82.10
16140;DHT22;8175;49.326;12.690;2022-08-23T12:51:06;29.70;76.80
16140;DHT22;8175;49.326;12.690;2022-08-23T12:53:35;28.50;79.60
16140;DHT22;8175;49.326;12.690;2022-08-23T12:56:07;27.50;82.70
16140;DHT22;8175;49.326;12.690;2022-08-23T12:58:36;26.60;85.00
16140;DHT22;8175;49.326;12.690;2022-08-23T13:01:05;25.70;88.90
16140;DHT22;8175;49.326;12.690;2022-08-23T13:03:39;25.10;91.10
16140;DHT22;8175;49.326;12.690;2022-08-23T13:06:10;24.80;93.00
16140;DHT22;8175;49.326;12.690;2022-08-23T13:08:41;24.60;94.00
16140;DHT22;8175;49.326;12.690;2022-08-23T13:11:08;24.40;95.20
16140;DHT22;8175;49.326;12.690;2022-08-23T13:13:38;24.20;94.10
16140;DHT22;8175;49.326;12.690;2022-08-23T13:18:52;24.20;97.30
16140;DHT22;8175;49.326;12.690;2022-08-23T13:23:51;24.20;97.10
16140;DHT22;8175;49.326;12.690;2022-08-23T13:26:35;24.20;97.30
16140;DHT22;8175;49.326;12.690;2022-08-23T13:37:18;27.50;92.30
16140;DHT22;8175;49.326;12.690;2022-08-23T13:39:51;27.80;87.10
16140;DHT22;8175;49.326;12.690;2022-08-23T13:42:33;27.90;85.00
16140;DHT22;8175;49.326;12.690;2022-08-23T13:45:13;27.60;85.20
16140;DHT22;8175;49.326;12.690;2022-08-23T13:47:45;27.40;88.60
16140;DHT22;8175;49.326;12.690;2022-08-23T13:50:27;27.30;87.00
16140;DHT22;8175;49.326;12.690;2022-08-23T13:52:54;28.00;87.10
16140;DHT22;8175;49.326;12.690;2022-08-23T13:55:20;29.30;84.50
16140;DHT22;8175;49.326;12.690;2022-08-23T13:57:46;29.80;76.40
16140;DHT22;8175;49.326;12.690;2022-08-23T14:00:12;28.90;78.80
16140;DHT22;8175;49.326;12.690;2022-08-23T14:02:38;28.10;83.20
16140;DHT22;8175;49.326;12.690;2022-08-23T14:05:06;27.50;84.20
16140;DHT22;8175;49.326;12.690;2022-08-23T14:07:32;27.10;84.90
16140;DHT22;8175;49.326;12.690;2022-08-23T14:09:58;26.00;88.10
16140;DHT22;8175;49.326;12.690;2022-08-23T14:12:27;24.50;91.30
16140;DHT22;8175;49.326;12.690;2022-08-23T14:14:55;24.00;92.80
16140;DHT22;8175;49.326;12.690;2022-08-23T14:17:21;23.30;94.30
16140;DHT22;8175;49.326;12.690;2022-08-23T14:19:47;23.00;97.10
16140;DHT22;8175;49.326;12.690;2022-08-23T14:22:13;23.00;97.90
16140;DHT22;8175;49.326;12.690;2022-08-23T14:24:41;23.00;99.60
16140;DHT22;8175;49.326;12.690;2022-08-23T14:27:07;23.10;99.70
16140;DHT22;8175;49.326;12.690;2022-08-23T14:29:33;23.80;99.50
16140;DHT22;8175;49.326;12.690;2022-08-23T14:31:59;24.30;97.70
16140;DHT22;8175;49.326;12.690;2022-08-23T14:34:26;23.80;95.70
16140;DHT22;8175;49.326;12.690;2022-08-23T14:36:52;23.80;96.40
16140;DHT22;8175;49.326;12.690;2022-08-23T14:39:20;23.60;96.80
16140;DHT22;8175;49.326;12.690;2022-08-23T14:41:46;22.80;99.90
16140;DHT22;8175;49.326;12.690;2022-08-23T14:44:12;22.70;99.90
16140;DHT22;8175;49.326;12.690;2022-08-23T14:46:41;22.90;99.90
16140;DHT22;8175;49.326;12.690;2022-08-23T14:49:07;23.10;99.50
16140;DHT22;8175;49.326;12.690;2022-08-23T14:51:35;23.30;99.90
16140;DHT22;8175;49.326;12.690;2022-08-23T14:54:02;24.10;97.90
16140;DHT22;8175;49.326;12.690;2022-08-23T14:56:30;24.50;96.10
16140;DHT22;8175;49.326;12.690;2022-08-23T14:58:55;24.80;95.20
16140;DHT22;8175;49.326;12.690;2022-08-23T15:01:21;25.10;96.10
16140;DHT22;8175;49.326;12.690;2022-08-23T15:03:48;26.00;91.90
16140;DHT22;8175;49.326;12.690;2022-08-23T15:06:15;26.60;90.10
16140;DHT22;8175;49.326;12.690;2022-08-23T15:08:41;25.90;90.70
16140;DHT22;8175;49.326;12.690;2022-08-23T15:11:07;25.50;91.30
16140;DHT22;8175;49.326;12.690;2022-08-23T15:13:37;25.10;92.60
16140;DHT22;8175;49.326;12.690;2022-08-23T15:16:04;25.50;93.10
16140;DHT22;8175;49.326;12.690;2022-08-23T15:18:31;25.50;92.30
16140;DHT22;8175;49.326;12.690;2022-08-23T15:20:58;25.50;92.30
16140;DHT22;8175;49.326;12.690;2022-08-23T15:23:24;24.80;93.20
16140;DHT22;8175;49.326;12.690;2022-08-23T15:25:50;25.10;93.00
16140;DHT22;8175;49.326;12.690;2022-08-23T15:28:17;25.50;93.10
16140;DHT22;8175;49.326;12.690;2022-08-23T15:30:43;26.40;90.80
16140;DHT22;8175;49.326;12.690;2022-08-23T15:33:10;25.70;91.50
16140;DHT22;8175;49.326;12.690;2022-08-23T15:35:48;25.50;92.50
16140;DHT22;8175;49.326;12.690;2022-08-23T15:38:17;26.20;91.60
16140;DHT22;8175;49.326;12.690;2022-08-23T15:40:44;26.30;89.40
16140;DHT22;8175;49.326;12.690;2022-08-23T15:43:10;25.40;90.90
16140;DHT22;8175;49.326;12.690;2022-08-23T15:45:36;24.90;93.50
16140;DHT22;8175;49.326;12.690;2022-08-23T15:48:10;25.30;94.00
16140;DHT22;8175;49.326;12.690;2022-08-23T15:50:36;25.40;91.60
16140;DHT22;8175;49.326;12.690;2022-08-23T15:53:02;25.20;92.90
16140;DHT22;8175;49.326;12.690;2022-08-23T15:55:30;25.30;91.60
16140;DHT22;8175;49.326;12.690;2022-08-23T15:57:57;25.10;92.70
16140;DHT22;8175;49.326;12.690;2022-08-23T16:00:23;25.10;92.70
16140;DHT22;8175;49.326;12.690;2022-08-23T16:02:51;25.50;93.50
16140;DHT22;8175;49.326;12.690;2022-08-23T16:05:18;24.90;93.90
16140;DHT22;8175;49.326;12.690;2022-08-23T16:07:44;24.30;95.10
16140;DHT22;8175;49.326;12.690;2022-08-23T16:10:12;24.70;96.20
16140;DHT22;8175;49.326;12.690;2022-08-23T16:12:39;24.50;94.90
16140;DHT22;8175;49.326;12.690;2022-08-23T16:15:06;24.90;96.10
16140;DHT22;8175;49.326;12.690;2022-08-23T16:17:33;25.50;95.30
16140;DHT22;8175;49.326;12.690;2022-08-23T16:19:59;25.20;93.90
16140;DHT22;8175;49.326;12.690;2022-08-23T16:22:25;24.70;95.50
16140;DHT22;8175;49.326;12.690;2022-08-23T16:24:50;25.20;95.90
16140;DHT22;8175;49.326;12.690;2022-08-23T16:27:16;25.10;95.70
16140;DHT22;8175;49.326;12.690;2022-08-23T16:29:41;25.10;95.60
16140;DHT22;8175;49.326;12.690;2022-08-23T16:32:07;25.10;94.70
16140;DHT22;8175;49.326;12.690;2022-08-23T16:34:34;24.70;96.50
16140;DHT22;8175;49.326;12.690;2022-08-23T16:37:02;24.80;96.50
16140;DHT22;8175;49.326;12.690;2022-08-23T16:39:29;25.30;95.60
16140;DHT22;8175;49.326;12.690;2022-08-23T16:41:57;25.70;93.20
16140;DHT22;8175;49.326;12.690;2022-08-23T16:44:22;25.60;95.00
16140;DHT22;8175;49.326;12.690;2022-08-23T16:46:49;25.40;96.30
16140;DHT22;8175;49.326;12.690;2022-08-23T16:49:16;25.30;96.70
16140;DHT22;8175;49.326;12.690;2022-08-23T16:51:44;24.40;96.50
16140;DHT22;8175;49.326;12.690;2022-08-23T16:54:10;24.30;97.50
16140;DHT22;8175;49.326;12.690;2022-08-23T16:56:37;24.20;98.90
16140;DHT22;8175;49.326;12.690;2022-08-23T16:59:05;23.90;99.90
16140;DHT22;8175;49.326;12.690;2022-08-23T17:01:46;23.30;99.90
16140;DHT22;8175;49.326;12.690;2022-08-23T17:04:12;23.10;99.90
16140;DHT22;8175;49.326;12.690;2022-08-23T17:06:38;22.70;99.90
16140;DHT22;8175;49.326;12.690;2022-08-23T17:09:04;22.30;99.90
16140;DHT22;8175;49.326;12.690;2022-08-23T17:11:31;22.00;99.90
16140;DHT22;8175;49.326;12.690;2022-08-23T17:13:56;21.80;99.90
16140;DHT22;8175;49.326;12.690;2022-08-23T17:16:22;21.50;99.90
16140;DHT22;8175;49.326;12.690;2022-08-23T17:18:49;21.40;99.90
16140;DHT22;8175;49.326;12.690;2022-08-23T17:21:15;21.10;99.90
16140;DHT22;8175;49.326;12.690;2022-08-23T17:23:41;20.90;99.90
16140;DHT22;8175;49.326;12.690;2022-08-23T17:26:08;20.80;99.90
16140;DHT22;8175;49.326;12.690;2022-08-23T17:28:34;20.70;99.90
16140;DHT22;8175;49.326;12.690;2022-08-23T17:30:59;20.60;99.90
16140;DHT22;8175;49.326;12.690;2022-08-23T17:33:25;20.40;99.90
16140;DHT22;8175;49.326;12.690;2022-08-23T17:35:51;20.30;99.90
16140;DHT22;8175;49.326;12.690;2022-08-23T17:38:17;20.20;99.90
16140;DHT22;8175;49.326;12.690;2022-08-23T17:40:44;20.10;99.90